sensor_id;sensor_type;location;lat;lon;timestamp;temperature;humidity
55711;DHT22;41612;51.994;5.880;2024-02-21T00:02:07;9.70;84.30
55711;DHT22;41612;51.994;5.880;2024-02-21T00:04:33;9.60;84.30
55711;DHT22;41612;51.994;5.880;2024-02-21T00:06:59;9.60;84.30
55711;DHT22;41612;51.994;5.880;2024-02-21T00:09:24;9.70;84.20
55711;DHT22;41612;51.994;5.880;2024-02-21T00:11:50;9.70;84.30
55711;DHT22;41612;51.994;5.880;2024-02-21T00:14:16;9.70;84.20
55711;DHT22;41612;51.994;5.880;2024-02-21T00:16:41;9.70;84.30
55711;DHT22;41612;51.994;5.880;2024-02-21T00:19:07;9.70;84.20
55711;DHT22;41612;51.994;5.880;2024-02-21T00:21:33;9.70;84.40
55711;DHT22;41612;51.994;5.880;2024-02-21T00:23:58;9.70;84.30
55711;DHT22;41612;51.994;5.880;2024-02-21T00:26:24;9.70;84.30
55711;DHT22;41612;51.994;5.880;2024-02-21T00:28:51;9.70;84.10
55711;DHT22;41612;51.994;5.880;2024-02-21T00:31:16;9.70;84.00
55711;DHT22;41612;51.994;5.880;2024-02-21T00:33:42;9.70;84.10
55711;DHT22;41612;51.994;5.880;2024-02-21T00:36:08;9.70;84.10
55711;DHT22;41612;51.994;5.880;2024-02-21T00:38:33;9.70;84.00
55711;DHT22;41612;51.994;5.880;2024-02-21T00:40:59;9.70;84.20
55711;DHT22;41612;51.994;5.880;2024-02-21T00:43:24;9.70;84.10
55711;DHT22;41612;51.994;5.880;2024-02-21T00:45:50;9.70;84.10
55711;DHT22;41612;51.994;5.880;2024-02-21T00:48:16;9.70;84.10
55711;DHT22;41612;51.994;5.880;2024-02-21T00:50:42;9.70;84.00
55711;DHT22;41612;51.994;5.880;2024-02-21T00:53:07;9.70;84.10
55711;DHT22;41612;51.994;5.880;2024-02-21T00:55:33;9.70;84.20
55711;DHT22;41612;51.994;5.880;2024-02-21T00:57:59;9.70;84.10
55711;DHT22;41612;51.994;5.880;2024-02-21T01:00:25;9.70;84.10
55711;DHT22;41612;51.994;5.880;2024-02-21T01:02:50;9.70;84.00
55711;DHT22;41612;51.994;5.880;2024-02-21T01:05:16;9.70;84.10
55711;DHT22;41612;51.994;5.880;2024-02-21T01:07:41;9.70;84.10
55711;DHT22;41612;51.994;5.880;2024-02-21T01:10:07;9.70;84.20
55711;DHT22;41612;51.994;5.880;2024-02-21T01:12:33;9.70;84.10
55711;DHT22;41612;51.994;5.880;2024-02-21T01:14:59;9.70;84.10
55711;DHT22;41612;51.994;5.880;2024-02-21T01:17:25;9.70;84.10
55711;DHT22;41612;51.994;5.880;2024-02-21T01:19:50;9.70;84.10
55711;DHT22;41612;51.994;5.880;2024-02-21T01:22:16;9.70;84.10
55711;DHT22;41612;51.994;5.880;2024-02-21T01:24:42;9.70;84.10
55711;DHT22;41612;51.994;5.880;2024-02-21T01:27:07;9.70;84.10
55711;DHT22;41612;51.994;5.880;2024-02-21T01:29:33;9.70;84.10
55711;DHT22;41612;51.994;5.880;2024-02-21T01:31:59;9.60;84.30
55711;DHT22;41612;51.994;5.880;2024-02-21T01:34:24;9.70;84.20
55711;DHT22;41612;51.994;5.880;2024-02-21T01:36:50;9.70;84.30
55711;DHT22;41612;51.994;5.880;2024-02-21T01:39:16;9.70;84.50
55711;DHT22;41612;51.994;5.880;2024-02-21T01:41:41;9.70;84.40
55711;DHT22;41612;51.994;5.880;2024-02-21T01:44:07;9.70;84.50
55711;DHT22;41612;51.994;5.880;2024-02-21T01:46:33;9.70;84.50
55711;DHT22;41612;51.994;5.880;2024-02-21T01:48:59;9.70;84.40
55711;DHT22;41612;51.994;5.880;2024-02-21T01:51:27;9.70;84.30
55711;DHT22;41612;51.994;5.880;2024-02-21T01:53:54;9.70;84.10
55711;DHT22;41612;51.994;5.880;2024-02-21T01:56:21;9.70;84.30
55711;DHT22;41612;51.994;5.880;2024-02-21T01:58:48;9.70;84.30
55711;DHT22;41612;51.994;5.880;2024-02-21T02:01:16;9.70;84.30
55711;DHT22;41612;51.994;5.880;2024-02-21T02:03:42;9.60;84.30
55711;DHT22;41612;51.994;5.880;2024-02-21T02:06:10;9.60;84.30
55711;DHT22;41612;51.994;5.880;2024-02-21T02:08:37;9.60;84.30
55711;DHT22;41612;51.994;5.880;2024-02-21T02:11:07;9.60;84.40
55711;DHT22;41612;51.994;5.880;2024-02-21T02:13:39;9.60;84.50
55711;DHT22;41612;51.994;5.880;2024-02-21T02:16:05;9.60;84.30
55711;DHT22;41612;51.994;5.880;2024-02-21T02:18:30;9.60;84.30
55711;DHT22;41612;51.994;5.880;2024-02-21T02:20:58;9.60;84.40
55711;DHT22;41612;51.994;5.880;2024-02-21T02:23:31;9.60;84.40
55711;DHT22;41612;51.994;5.880;2024-02-21T02:25:59;9.60;84.40
55711;DHT22;41612;51.994;5.880;2024-02-21T02:28:26;9.60;84.40
55711;DHT22;41612;51.994;5.880;2024-02-21T02:30:53;9.70;84.40
55711;DHT22;41612;51.994;5.880;2024-02-21T02:33:20;9.70;84.40
55711;DHT22;41612;51.994;5.880;2024-02-21T02:35:46;9.60;84.30
55711;DHT22;41612;51.994;5.880;2024-02-21T02:38:14;9.70;84.20
55711;DHT22;41612;51.994;5.880;2024-02-21T02:40:41;9.60;84.20
55711;DHT22;41612;51.994;5.880;2024-02-21T02:43:07;9.60;84.30
55711;DHT22;41612;51.994;5.880;2024-02-21T02:45:33;9.70;84.40
55711;DHT22;41612;51.994;5.880;2024-02-21T02:47:59;9.60;84.20
55711;DHT22;41612;51.994;5.880;2024-02-21T02:50:26;9.50;84.30
55711;DHT22;41612;51.994;5.880;2024-02-21T02:52:54;9.50;84.50
55711;DHT22;41612;51.994;5.880;2024-02-21T02:55:21;9.50;84.40
55711;DHT22;41612;51.994;5.880;2024-02-21T02:57:46;9.50;84.50
55711;DHT22;41612;51.994;5.880;2024-02-21T03:00:14;9.50;84.60
55711;DHT22;41612;51.994;5.880;2024-02-21T03:02:43;9.50;84.70
55711;DHT22;41612;51.994;5.880;2024-02-21T03:05:27;9.60;84.60
55711;DHT22;41612;51.994;5.880;2024-02-21T03:07:53;9.60;84.40
55711;DHT22;41612;51.994;5.880;2024-02-21T03:10:20;9.50;84.40
55711;DHT22;41612;51.994;5.880;2024-02-21T03:12:46;9.50;84.40
55711;DHT22;41612;51.994;5.880;2024-02-21T03:15:12;9.50;84.40
55711;DHT22;41612;51.994;5.880;2024-02-21T03:17:38;9.50;84.50
55711;DHT22;41612;51.994;5.880;2024-02-21T03:20:05;9.50;84.50
55711;DHT22;41612;51.994;5.880;2024-02-21T03:22:32;9.50;84.60
55711;DHT22;41612;51.994;5.880;2024-02-21T03:24:58;9.50;84.70
55711;DHT22;41612;51.994;5.880;2024-02-21T03:27:25;9.50;84.60
55711;DHT22;41612;51.994;5.880;2024-02-21T03:29:53;9.50;84.50
55711;DHT22;41612;51.994;5.880;2024-02-21T03:32:18;9.50;84.40
55711;DHT22;41612;51.994;5.880;2024-02-21T03:34:44;9.50;84.40
55711;DHT22;41612;51.994;5.880;2024-02-21T03:37:10;9.50;84.20
55711;DHT22;41612;51.994;5.880;2024-02-21T03:39:39;9.50;84.30
55711;DHT22;41612;51.994;5.880;2024-02-21T03:42:05;9.50;84.30
55711;DHT22;41612;51.994;5.880;2024-02-21T03:44:32;9.50;84.30
55711;DHT22;41612;51.994;5.880;2024-02-21T03:47:01;9.40;84.30
55711;DHT22;41612;51.994;5.880;2024-02-21T03:49:28;9.40;84.40
55711;DHT22;41612;51.994;5.880;2024-02-21T03:51:55;9.40;84.30
55711;DHT22;41612;51.994;5.880;2024-02-21T03:54:24;9.40;84.40
55711;DHT22;41612;51.994;5.880;2024-02-21T03:56:51;9.40;84.50
55711;DHT22;41612;51.994;5.880;2024-02-21T03:59:17;9.40;84.30
55711;DHT22;41612;51.994;5.880;2024-02-21T04:01:42;9.40;84.30
55711;DHT22;41612;51.994;5.880;2024-02-21T04:04:08;9.40;84.50
55711;DHT22;41612;51.994;5.880;2024-02-21T04:06:34;9.40;84.50
55711;DHT22;41612;51.994;5.880;2024-02-21T04:08:59;9.50;84.60
55711;DHT22;41612;51.994;5.880;2024-02-21T04:11:25;9.50;84.40
55711;DHT22;41612;51.994;5.880;2024-02-21T04:13:51;9.50;84.40
55711;DHT22;41612;51.994;5.880;2024-02-21T04:16:17;9.50;84.40
55711;DHT22;41612;51.994;5.880;2024-02-21T04:18:43;9.50;84.30
55711;DHT22;41612;51.994;5.880;2024-02-21T04:21:09;9.50;84.30
55711;DHT22;41612;51.994;5.880;2024-02-21T04:23:37;9.50;84.50
55711;DHT22;41612;51.994;5.880;2024-02-21T04:26:03;9.50;84.30
55711;DHT22;41612;51.994;5.880;2024-02-21T04:28:29;9.50;84.30
55711;DHT22;41612;51.994;5.880;2024-02-21T04:30:55;9.50;84.20
55711;DHT22;41612;51.994;5.880;2024-02-21T04:33:25;9.50;84.00
55711;DHT22;41612;51.994;5.880;2024-02-21T04:35:53;9.50;84.00
55711;DHT22;41612;51.994;5.880;2024-02-21T04:38:20;9.50;84.00
55711;DHT22;41612;51.994;5.880;2024-02-21T04:40:46;9.50;83.90
55711;DHT22;41612;51.994;5.880;2024-02-21T04:43:14;9.50;84.00
55711;DHT22;41612;51.994;5.880;2024-02-21T04:45:40;9.50;83.70
55711;DHT22;41612;51.994;5.880;2024-02-21T04:48:09;9.50;83.90
55711;DHT22;41612;51.994;5.880;2024-02-21T04:50:35;9.60;83.90
55711;DHT22;41612;51.994;5.880;2024-02-21T04:53:03;9.50;83.70
55711;DHT22;41612;51.994;5.880;2024-02-21T04:55:29;9.50;83.70
55711;DHT22;41612;51.994;5.880;2024-02-21T04:57:55;9.50;83.90
55711;DHT22;41612;51.994;5.880;2024-02-21T05:00:29;9.50;83.60
55711;DHT22;41612;51.994;5.880;2024-02-21T05:02:57;9.50;83.60
55711;DHT22;41612;51.994;5.880;2024-02-21T05:05:33;9.50;83.70
55711;DHT22;41612;51.994;5.880;2024-02-21T05:08:15;9.50;83.60
55711;DHT22;41612;51.994;5.880;2024-02-21T05:10:41;9.50;83.70
55711;DHT22;41612;51.994;5.880;2024-02-21T05:13:09;9.50;83.80
55711;DHT22;41612;51.994;5.880;2024-02-21T05:15:37;9.50;83.70
55711;DHT22;41612;51.994;5.880;2024-02-21T05:18:03;9.50;83.50
55711;DHT22;41612;51.994;5.880;2024-02-21T05:20:29;9.50;83.50
55711;DHT22;41612;51.994;5.880;2024-02-21T05:22:57;9.50;83.30
55711;DHT22;41612;51.994;5.880;2024-02-21T05:25:25;9.50;83.40
55711;DHT22;41612;51.994;5.880;2024-02-21T05:27:56;9.50;83.40
55711;DHT22;41612;51.994;5.880;2024-02-21T05:30:39;9.50;83.20
55711;DHT22;41612;51.994;5.880;2024-02-21T05:33:06;9.50;83.60
55711;DHT22;41612;51.994;5.880;2024-02-21T05:35:35;9.50;83.70
55711;DHT22;41612;51.994;5.880;2024-02-21T05:38:03;9.50;83.80
55711;DHT22;41612;51.994;5.880;2024-02-21T05:40:36;9.50;84.10
55711;DHT22;41612;51.994;5.880;2024-02-21T05:43:05;9.50;83.80
55711;DHT22;41612;51.994;5.880;2024-02-21T05:45:38;9.50;83.60
55711;DHT22;41612;51.994;5.880;2024-02-21T05:48:09;9.50;83.60
55711;DHT22;41612;51.994;5.880;2024-02-21T05:50:42;9.50;83.80
55711;DHT22;41612;51.994;5.880;2024-02-21T05:53:11;9.50;83.80
55711;DHT22;41612;51.994;5.880;2024-02-21T05:55:40;9.50;83.70
55711;DHT22;41612;51.994;5.880;2024-02-21T05:58:06;9.50;83.60
55711;DHT22;41612;51.994;5.880;2024-02-21T06:00:35;9.50;83.80
55711;DHT22;41612;51.994;5.880;2024-02-21T06:03:04;9.50;83.50
55711;DHT22;41612;51.994;5.880;2024-02-21T06:05:30;9.50;83.60
55711;DHT22;41612;51.994;5.880;2024-02-21T06:08:08;9.50;83.30
55711;DHT22;41612;51.994;5.880;2024-02-21T06:10:36;9.50;83.60
55711;DHT22;41612;51.994;5.880;2024-02-21T06:13:05;9.50;83.70
55711;DHT22;41612;51.994;5.880;2024-02-21T06:15:41;9.50;83.20
55711;DHT22;41612;51.994;5.880;2024-02-21T06:18:12;9.50;83.40
55711;DHT22;41612;51.994;5.880;2024-02-21T06:20:40;9.50;83.50
55711;DHT22;41612;51.994;5.880;2024-02-21T06:23:14;9.40;83.50
55711;DHT22;41612;51.994;5.880;2024-02-21T06:25:40;9.50;83.50
55711;DHT22;41612;51.994;5.880;2024-02-21T06:28:06;9.50;83.50
55711;DHT22;41612;51.994;5.880;2024-02-21T06:30:32;9.50;83.50
55711;DHT22;41612;51.994;5.880;2024-02-21T06:33:01;9.40;83.40
55711;DHT22;41612;51.994;5.880;2024-02-21T06:35:29;9.50;83.20
55711;DHT22;41612;51.994;5.880;2024-02-21T06:37:57;9.50;83.30
55711;DHT22;41612;51.994;5.880;2024-02-21T06:40:23;9.40;83.40
55711;DHT22;41612;51.994;5.880;2024-02-21T06:42:51;9.50;83.60
55711;DHT22;41612;51.994;5.880;2024-02-21T06:45:22;9.40;83.20
55711;DHT22;41612;51.994;5.880;2024-02-21T06:47:54;9.40;83.10
55711;DHT22;41612;51.994;5.880;2024-02-21T06:50:23;9.50;82.90
55711;DHT22;41612;51.994;5.880;2024-02-21T06:52:57;9.50;83.20
55711;DHT22;41612;51.994;5.880;2024-02-21T06:55:22;9.50;83.00
55711;DHT22;41612;51.994;5.880;2024-02-21T06:57:49;9.50;83.20
55711;DHT22;41612;51.994;5.880;2024-02-21T07:00:20;9.50;83.10
55711;DHT22;41612;51.994;5.880;2024-02-21T07:02:45;9.50;82.70
55711;DHT22;41612;51.994;5.880;2024-02-21T07:05:11;9.50;82.90
55711;DHT22;41612;51.994;5.880;2024-02-21T07:07:49;9.50;83.10
55711;DHT22;41612;51.994;5.880;2024-02-21T07:10:25;9.50;82.90
55711;DHT22;41612;51.994;5.880;2024-02-21T07:12:52;9.50;83.00
55711;DHT22;41612;51.994;5.880;2024-02-21T07:15:18;9.50;82.50
55711;DHT22;41612;51.994;5.880;2024-02-21T07:17:44;9.40;82.70
55711;DHT22;41612;51.994;5.880;2024-02-21T07:20:11;9.50;82.60
55711;DHT22;41612;51.994;5.880;2024-02-21T07:22:36;9.50;83.10
55711;DHT22;41612;51.994;5.880;2024-02-21T07:25:02;9.50;83.00
55711;DHT22;41612;51.994;5.880;2024-02-21T07:27:28;9.50;82.90
55711;DHT22;41612;51.994;5.880;2024-02-21T07:29:57;9.60;82.90
55711;DHT22;41612;51.994;5.880;2024-02-21T07:32:25;9.50;82.80
55711;DHT22;41612;51.994;5.880;2024-02-21T07:34:51;9.50;82.50
55711;DHT22;41612;51.994;5.880;2024-02-21T07:37:16;9.60;82.60
55711;DHT22;41612;51.994;5.880;2024-02-21T07:39:42;9.60;83.00
55711;DHT22;41612;51.994;5.880;2024-02-21T07:42:08;9.60;82.80
55711;DHT22;41612;51.994;5.880;2024-02-21T07:44:35;9.60;82.60
55711;DHT22;41612;51.994;5.880;2024-02-21T07:47:02;9.60;82.40
55711;DHT22;41612;51.994;5.880;2024-02-21T07:49:28;9.50;82.30
55711;DHT22;41612;51.994;5.880;2024-02-21T07:51:55;9.60;82.50
55711;DHT22;41612;51.994;5.880;2024-02-21T07:54:21;9.60;82.10
55711;DHT22;41612;51.994;5.880;2024-02-21T07:56:46;9.60;82.00
55711;DHT22;41612;51.994;5.880;2024-02-21T07:59:13;9.60;81.80
55711;DHT22;41612;51.994;5.880;2024-02-21T08:01:42;9.60;82.10
55711;DHT22;41612;51.994;5.880;2024-02-21T08:04:12;9.60;81.60
55711;DHT22;41612;51.994;5.880;2024-02-21T08:06:40;9.70;82.30
55711;DHT22;41612;51.994;5.880;2024-02-21T08:09:08;9.70;82.20
55711;DHT22;41612;51.994;5.880;2024-02-21T08:11:37;9.70;81.40
55711;DHT22;41612;51.994;5.880;2024-02-21T08:14:06;9.60;81.70
55711;DHT22;41612;51.994;5.880;2024-02-21T08:16:31;9.70;81.80
55711;DHT22;41612;51.994;5.880;2024-02-21T08:19:00;9.60;81.40
55711;DHT22;41612;51.994;5.880;2024-02-21T08:21:28;9.70;81.90
55711;DHT22;41612;51.994;5.880;2024-02-21T08:23:57;9.70;81.50
55711;DHT22;41612;51.994;5.880;2024-02-21T08:26:31;9.80;81.30
55711;DHT22;41612;51.994;5.880;2024-02-21T08:29:01;9.80;81.50
55711;DHT22;41612;51.994;5.880;2024-02-21T08:31:29;9.80;80.90
55711;DHT22;41612;51.994;5.880;2024-02-21T08:34:00;9.90;81.20
55711;DHT22;41612;51.994;5.880;2024-02-21T08:36:34;10.00;80.80
55711;DHT22;41612;51.994;5.880;2024-02-21T08:39:08;10.00;80.60
55711;DHT22;41612;51.994;5.880;2024-02-21T08:41:39;10.10;81.20
55711;DHT22;41612;51.994;5.880;2024-02-21T08:44:13;10.10;80.50
55711;DHT22;41612;51.994;5.880;2024-02-21T08:46:38;10.00;80.10
55711;DHT22;41612;51.994;5.880;2024-02-21T08:49:06;10.00;79.90
55711;DHT22;41612;51.994;5.880;2024-02-21T08:51:32;9.90;80.80
55711;DHT22;41612;51.994;5.880;2024-02-21T08:53:58;9.90;80.30
55711;DHT22;41612;51.994;5.880;2024-02-21T08:56:29;9.90;80.70
55711;DHT22;41612;51.994;5.880;2024-02-21T08:58:56;9.90;80.50
55711;DHT22;41612;51.994;5.880;2024-02-21T09:01:23;10.00;80.30
55711;DHT22;41612;51.994;5.880;2024-02-21T09:03:49;10.00;80.50
55711;DHT22;41612;51.994;5.880;2024-02-21T09:06:21;9.90;80.30
55711;DHT22;41612;51.994;5.880;2024-02-21T09:08:52;9.90;80.50
55711;DHT22;41612;51.994;5.880;2024-02-21T09:11:18;9.90;80.20
55711;DHT22;41612;51.994;5.880;2024-02-21T09:13:44;10.00;80.70
55711;DHT22;41612;51.994;5.880;2024-02-21T09:16:10;10.00;79.90
55711;DHT22;41612;51.994;5.880;2024-02-21T09:18:43;10.00;79.70
55711;DHT22;41612;51.994;5.880;2024-02-21T09:21:11;10.10;79.90
55711;DHT22;41612;51.994;5.880;2024-02-21T09:23:36;10.10;79.70
55711;DHT22;41612;51.994;5.880;2024-02-21T09:26:07;10.00;79.50
55711;DHT22;41612;51.994;5.880;2024-02-21T09:28:36;10.00;79.50
55711;DHT22;41612;51.994;5.880;2024-02-21T09:31:01;10.00;79.50
55711;DHT22;41612;51.994;5.880;2024-02-21T09:33:27;10.10;79.70
55711;DHT22;41612;51.994;5.880;2024-02-21T09:35:53;10.20;79.60
55711;DHT22;41612;51.994;5.880;2024-02-21T09:38:19;10.20;79.10
55711;DHT22;41612;51.994;5.880;2024-02-21T09:40:45;10.30;79.10
55711;DHT22;41612;51.994;5.880;2024-02-21T09:43:11;10.20;79.10
55711;DHT22;41612;51.994;5.880;2024-02-21T09:45:47;10.30;78.80
55711;DHT22;41612;51.994;5.880;2024-02-21T09:48:30;10.30;79.10
55711;DHT22;41612;51.994;5.880;2024-02-21T09:50:57;10.30;78.90
55711;DHT22;41612;51.994;5.880;2024-02-21T09:53:24;10.30;78.70
55711;DHT22;41612;51.994;5.880;2024-02-21T09:55:53;10.30;78.80
55711;DHT22;41612;51.994;5.880;2024-02-21T09:58:22;10.40;79.10
55711;DHT22;41612;51.994;5.880;2024-02-21T10:00:49;10.40;78.50
55711;DHT22;41612;51.994;5.880;2024-02-21T10:03:16;10.40;78.70
55711;DHT22;41612;51.994;5.880;2024-02-21T10:05:48;10.40;78.40
55711;DHT22;41612;51.994;5.880;2024-02-21T10:08:19;10.50;78.40
55711;DHT22;41612;51.994;5.880;2024-02-21T10:10:46;10.50;78.30
55711;DHT22;41612;51.994;5.880;2024-02-21T10:13:32;10.60;77.80
55711;DHT22;41612;51.994;5.880;2024-02-21T10:16:14;10.50;77.50
55711;DHT22;41612;51.994;5.880;2024-02-21T10:18:42;10.50;77.50
55711;DHT22;41612;51.994;5.880;2024-02-21T10:21:08;10.50;77.20
55711;DHT22;41612;51.994;5.880;2024-02-21T10:23:50;10.50;78.20
55711;DHT22;41612;51.994;5.880;2024-02-21T10:26:18;10.60;77.80
55711;DHT22;41612;51.994;5.880;2024-02-21T10:28:45;10.70;78.60
55711;DHT22;41612;51.994;5.880;2024-02-21T10:31:22;10.70;78.20
55711;DHT22;41612;51.994;5.880;2024-02-21T10:34:00;10.70;77.80
55711;DHT22;41612;51.994;5.880;2024-02-21T10:36:29;10.70;78.00
55711;DHT22;41612;51.994;5.880;2024-02-21T10:38:56;10.50;78.20
55711;DHT22;41612;51.994;5.880;2024-02-21T10:41:23;10.40;78.60
55711;DHT22;41612;51.994;5.880;2024-02-21T10:43:53;10.40;79.20
55711;DHT22;41612;51.994;5.880;2024-02-21T10:46:21;10.40;79.60
55711;DHT22;41612;51.994;5.880;2024-02-21T10:48:52;10.30;79.40
55711;DHT22;41612;51.994;5.880;2024-02-21T10:51:24;10.20;79.80
55711;DHT22;41612;51.994;5.880;2024-02-21T10:56:50;10.20;80.30
55711;DHT22;41612;51.994;5.880;2024-02-21T10:59:17;10.20;80.80
55711;DHT22;41612;51.994;5.880;2024-02-21T11:01:43;10.20;80.60
55711;DHT22;41612;51.994;5.880;2024-02-21T11:04:10;10.10;80.70
55711;DHT22;41612;51.994;5.880;2024-02-21T11:06:44;10.10;81.00
55711;DHT22;41612;51.994;5.880;2024-02-21T11:09:13;10.20;81.00
55711;DHT22;41612;51.994;5.880;2024-02-21T11:11:40;10.30;80.70
55711;DHT22;41612;51.994;5.880;2024-02-21T11:14:10;10.30;80.50
55711;DHT22;41612;51.994;5.880;2024-02-21T11:16:40;10.40;80.60
55711;DHT22;41612;51.994;5.880;2024-02-21T11:19:28;10.40;80.20
55711;DHT22;41612;51.994;5.880;2024-02-21T11:21:56;10.40;80.10
55711;DHT22;41612;51.994;5.880;2024-02-21T11:24:35;10.30;80.20
55711;DHT22;41612;51.994;5.880;2024-02-21T11:27:12;10.30;80.40
55711;DHT22;41612;51.994;5.880;2024-02-21T11:29:44;10.40;80.30
55711;DHT22;41612;51.994;5.880;2024-02-21T11:32:11;10.40;80.30
55711;DHT22;41612;51.994;5.880;2024-02-21T11:34:39;10.40;80.50
55711;DHT22;41612;51.994;5.880;2024-02-21T11:37:17;10.40;80.20
55711;DHT22;41612;51.994;5.880;2024-02-21T11:39:48;10.30;79.70
55711;DHT22;41612;51.994;5.880;2024-02-21T11:42:21;10.20;79.50
55711;DHT22;41612;51.994;5.880;2024-02-21T11:44:47;10.20;79.70
55711;DHT22;41612;51.994;5.880;2024-02-21T11:47:14;10.20;79.80
55711;DHT22;41612;51.994;5.880;2024-02-21T11:49:45;10.30;79.90
55711;DHT22;41612;51.994;5.880;2024-02-21T11:52:12;10.30;79.60
55711;DHT22;41612;51.994;5.880;2024-02-21T11:54:43;10.30;79.70
55711;DHT22;41612;51.994;5.880;2024-02-21T11:57:09;10.20;79.30
55711;DHT22;41612;51.994;5.880;2024-02-21T11:59:40;10.20;79.10
55711;DHT22;41612;51.994;5.880;2024-02-21T12:02:06;10.20;79.20
55711;DHT22;41612;51.994;5.880;2024-02-21T12:04:36;10.20;79.40
55711;DHT22;41612;51.994;5.880;2024-02-21T12:07:08;10.20;80.00
55711;DHT22;41612;51.994;5.880;2024-02-21T12:09:34;10.20;80.00
55711;DHT22;41612;51.994;5.880;2024-02-21T12:12:08;10.20;78.70
55711;DHT22;41612;51.994;5.880;2024-02-21T12:14:39;10.20;78.80
55711;DHT22;41612;51.994;5.880;2024-02-21T12:17:08;10.30;79.50
55711;DHT22;41612;51.994;5.880;2024-02-21T12:19:34;10.50;79.60
55711;DHT22;41612;51.994;5.880;2024-02-21T12:22:00;10.60;78.80
55711;DHT22;41612;51.994;5.880;2024-02-21T12:24:31;10.60;78.10
55711;DHT22;41612;51.994;5.880;2024-02-21T12:27:00;10.70;77.70
55711;DHT22;41612;51.994;5.880;2024-02-21T12:29:30;10.90;78.50
55711;DHT22;41612;51.994;5.880;2024-02-21T12:31:57;11.10;76.60
55711;DHT22;41612;51.994;5.880;2024-02-21T12:34:23;11.30;76.20
55711;DHT22;41612;51.994;5.880;2024-02-21T12:36:50;11.40;75.90
55711;DHT22;41612;51.994;5.880;2024-02-21T12:39:17;11.40;74.30
55711;DHT22;41612;51.994;5.880;2024-02-21T12:41:44;11.40;75.60
55711;DHT22;41612;51.994;5.880;2024-02-21T12:44:10;11.50;75.10
55711;DHT22;41612;51.994;5.880;2024-02-21T12:46:38;11.40;74.10
55711;DHT22;41612;51.994;5.880;2024-02-21T12:49:06;11.40;74.20
55711;DHT22;41612;51.994;5.880;2024-02-21T12:51:34;11.40;74.70
55711;DHT22;41612;51.994;5.880;2024-02-21T12:54:00;11.40;74.90
55711;DHT22;41612;51.994;5.880;2024-02-21T12:56:28;11.50;74.60
55711;DHT22;41612;51.994;5.880;2024-02-21T12:58:55;11.40;74.80
55711;DHT22;41612;51.994;5.880;2024-02-21T13:01:22;11.30;74.70
55711;DHT22;41612;51.994;5.880;2024-02-21T13:03:49;11.30;74.90
55711;DHT22;41612;51.994;5.880;2024-02-21T13:06:15;11.30;75.90
55711;DHT22;41612;51.994;5.880;2024-02-21T13:08:45;11.30;74.90
55711;DHT22;41612;51.994;5.880;2024-02-21T13:11:12;11.30;75.10
55711;DHT22;41612;51.994;5.880;2024-02-21T13:13:38;11.30;75.10
55711;DHT22;41612;51.994;5.880;2024-02-21T13:16:04;11.20;74.90
55711;DHT22;41612;51.994;5.880;2024-02-21T13:18:31;11.20;75.20
55711;DHT22;41612;51.994;5.880;2024-02-21T13:20:59;11.10;74.70
55711;DHT22;41612;51.994;5.880;2024-02-21T13:23:24;11.10;75.10
55711;DHT22;41612;51.994;5.880;2024-02-21T13:25:50;11.10;75.00
55711;DHT22;41612;51.994;5.880;2024-02-21T13:28:16;11.20;74.60
55711;DHT22;41612;51.994;5.880;2024-02-21T13:30:43;11.20;74.90
55711;DHT22;41612;51.994;5.880;2024-02-21T13:33:09;11.30;74.60
55711;DHT22;41612;51.994;5.880;2024-02-21T13:35:36;11.30;75.00
55711;DHT22;41612;51.994;5.880;2024-02-21T13:38:04;11.40;74.30
55711;DHT22;41612;51.994;5.880;2024-02-21T13:40:31;11.40;74.30
55711;DHT22;41612;51.994;5.880;2024-02-21T13:42:57;11.40;74.00
55711;DHT22;41612;51.994;5.880;2024-02-21T13:45:24;11.40;73.90
55711;DHT22;41612;51.994;5.880;2024-02-21T13:47:51;11.40;74.40
55711;DHT22;41612;51.994;5.880;2024-02-21T13:50:21;11.40;74.10
55711;DHT22;41612;51.994;5.880;2024-02-21T13:52:55;11.40;74.30
55711;DHT22;41612;51.994;5.880;2024-02-21T13:55:23;11.30;74.90
55711;DHT22;41612;51.994;5.880;2024-02-21T13:57:55;11.40;75.60
55711;DHT22;41612;51.994;5.880;2024-02-21T14:00:20;11.50;75.70
55711;DHT22;41612;51.994;5.880;2024-02-21T14:02:49;11.50;75.30
55711;DHT22;41612;51.994;5.880;2024-02-21T14:05:17;11.40;75.10
55711;DHT22;41612;51.994;5.880;2024-02-21T14:07:45;11.40;75.70
55711;DHT22;41612;51.994;5.880;2024-02-21T14:10:14;11.50;75.40
55711;DHT22;41612;51.994;5.880;2024-02-21T14:12:42;11.50;75.00
55711;DHT22;41612;51.994;5.880;2024-02-21T14:15:08;11.40;74.40
55711;DHT22;41612;51.994;5.880;2024-02-21T14:17:35;11.50;74.40
55711;DHT22;41612;51.994;5.880;2024-02-21T14:20:03;11.50;74.80
55711;DHT22;41612;51.994;5.880;2024-02-21T14:22:32;11.40;72.90
55711;DHT22;41612;51.994;5.880;2024-02-21T14:24:58;11.40;72.70
55711;DHT22;41612;51.994;5.880;2024-02-21T14:27:26;11.40;73.70
55711;DHT22;41612;51.994;5.880;2024-02-21T14:29:52;11.50;74.30
55711;DHT22;41612;51.994;5.880;2024-02-21T14:32:18;11.40;73.00
55711;DHT22;41612;51.994;5.880;2024-02-21T14:34:48;11.40;72.50
55711;DHT22;41612;51.994;5.880;2024-02-21T14:37:23;11.40;73.00
55711;DHT22;41612;51.994;5.880;2024-02-21T14:39:51;11.30;73.90
55711;DHT22;41612;51.994;5.880;2024-02-21T14:42:17;11.30;72.60
55711;DHT22;41612;51.994;5.880;2024-02-21T14:44:49;11.20;72.80
55711;DHT22;41612;51.994;5.880;2024-02-21T14:47:18;11.20;72.70
55711;DHT22;41612;51.994;5.880;2024-02-21T14:49:46;11.20;73.50
55711;DHT22;41612;51.994;5.880;2024-02-21T14:52:17;11.20;75.00
55711;DHT22;41612;51.994;5.880;2024-02-21T14:54:43;11.20;72.30
55711;DHT22;41612;51.994;5.880;2024-02-21T14:57:17;11.20;73.00
55711;DHT22;41612;51.994;5.880;2024-02-21T14:59:43;11.20;72.50
55711;DHT22;41612;51.994;5.880;2024-02-21T15:02:09;11.20;73.10
55711;DHT22;41612;51.994;5.880;2024-02-21T15:04:35;11.20;73.50
55711;DHT22;41612;51.994;5.880;2024-02-21T15:07:04;11.20;74.50
55711;DHT22;41612;51.994;5.880;2024-02-21T15:09:35;11.20;74.70
55711;DHT22;41612;51.994;5.880;2024-02-21T15:12:07;11.20;73.30
55711;DHT22;41612;51.994;5.880;2024-02-21T15:14:32;11.10;74.10
55711;DHT22;41612;51.994;5.880;2024-02-21T15:17:01;11.00;76.90
55711;DHT22;41612;51.994;5.880;2024-02-21T15:19:29;11.00;75.60
55711;DHT22;41612;51.994;5.880;2024-02-21T15:21:57;10.90;75.00
55711;DHT22;41612;51.994;5.880;2024-02-21T15:24:24;10.80;75.60
55711;DHT22;41612;51.994;5.880;2024-02-21T15:26:56;10.70;76.10
55711;DHT22;41612;51.994;5.880;2024-02-21T15:29:22;10.70;76.80
55711;DHT22;41612;51.994;5.880;2024-02-21T15:31:52;10.70;77.70
55711;DHT22;41612;51.994;5.880;2024-02-21T15:34:21;10.60;78.10
55711;DHT22;41612;51.994;5.880;2024-02-21T15:36:47;10.40;78.20
55711;DHT22;41612;51.994;5.880;2024-02-21T15:39:12;10.30;79.90
55711;DHT22;41612;51.994;5.880;2024-02-21T15:41:39;10.20;79.60
55711;DHT22;41612;51.994;5.880;2024-02-21T15:44:04;10.20;80.60
55711;DHT22;41612;51.994;5.880;2024-02-21T15:46:30;10.10;80.80
55711;DHT22;41612;51.994;5.880;2024-02-21T15:49:03;10.10;81.30